Kirkland, Washington
Current Conditions -  °F | °C
As of 4:53 PM on Saturday 22 Nov 2014 (Local Time) from KBFI Reporting Station
Broken Clouds Broken Clouds  
Wind Chill: 45°   Ceiling: 5000
Heat Index: 47°   Visibility: 10mi
Dew Point: 41°   Wind: 5mph
Humidity: 80%   Direction: 120°ESE
Pressure: 29.98"   Gusts: NA
Location:  47.68°N, 122.2°W
Report Text: KBFI 230053Z 12004KT 10SM SCT030 BKN050 08/05 A2998 RMK AO2 SLP153 T00830050
Loading
Personal Weather Stations






























Interactive Weather Map New forecast layout! Learn more

10-Day Weather Forecast

Advertisements
Track Severe Weather on mobile